createdAt,value
2019-05-17T08:50:53.870Z,0
2019-05-17T08:55:22.879Z,0
2019-05-17T08:55:43.434Z,0
2019-05-17T08:56:11.345Z,31.3
2019-05-17T08:58:53.862Z,0
2019-05-17T09:02:12.122Z,29.8
2019-05-17T09:06:15.757Z,31
2019-05-17T09:11:20.894Z,31
2019-05-17T09:16:24.776Z,30.6
2019-05-17T09:26:32.747Z,30.6
2019-05-17T09:31:36.638Z,30.8
2019-05-17T09:36:42.165Z,31.1
2019-05-17T09:41:46.086Z,31.2
2019-05-17T09:51:55.672Z,30.9
2019-05-17T09:57:01.772Z,31
2019-05-17T10:07:11.449Z,30.8
2019-05-17T10:12:15.408Z,30.9
2019-05-17T10:22:51.681Z,30.9
2019-05-17T10:27:55.589Z,31
2019-05-17T10:33:01.230Z,31.4
2019-05-17T10:38:05.315Z,31.2
2019-05-17T10:43:11.324Z,31
2019-05-17T10:46:41.915Z,31.2
2019-05-17T10:51:59.792Z,31.1
2019-05-17T10:57:03.731Z,31.1
2019-05-17T11:02:09.782Z,31
2019-05-17T11:07:13.691Z,31.2
2019-05-17T11:12:17.676Z,31.3
2019-05-17T11:22:25.468Z,31.3
2019-05-17T11:27:29.409Z,31.4
2019-05-17T11:32:33.578Z,31.8
2019-05-17T11:37:37.449Z,32.2
2019-05-17T11:47:45.194Z,32.4
2019-05-17T11:52:49.153Z,32.4
2019-05-17T11:57:52.785Z,32.5
2019-05-17T12:02:56.628Z,32.3
2019-05-17T12:08:00.461Z,32.1
2019-05-17T12:13:04.428Z,32
2019-05-17T12:18:08.257Z,31.9
2019-05-17T12:28:16.100Z,31.7
2019-05-17T12:33:19.921Z,31.8
2019-05-17T12:43:27.462Z,32
2019-05-17T12:48:31.317Z,32
2019-05-17T12:54:32.559Z,31.7
2019-05-17T12:59:08.803Z,32
2019-05-17T13:04:18.864Z,31.7
2019-05-17T13:14:39.215Z,31.9
2019-05-17T13:19:49.315Z,31.7
2019-05-17T13:30:09.640Z,31.4
2019-05-17T13:35:19.712Z,31.6
2019-05-17T13:45:45.224Z,32.2
2019-05-17T13:50:55.384Z,32.4
2019-05-17T14:01:15.708Z,32.6
2019-05-17T14:06:25.386Z,32.7
2019-05-17T14:16:45.441Z,32.5
2019-05-17T14:21:55.820Z,32.6
2019-05-17T14:27:05.608Z,32.6
2019-05-17T14:32:15.752Z,32.5
2019-05-17T14:37:26.444Z,32.6
2019-05-17T14:42:36.645Z,32.6
2019-05-17T14:47:46.865Z,32.5
2019-05-17T14:52:56.965Z,32.7
2019-05-17T14:58:07.093Z,32.5
2019-05-17T15:03:17.160Z,32.3
2019-05-17T15:08:27.229Z,32.3
2019-05-17T15:13:37.229Z,32.7
2019-05-17T15:18:47.297Z,32.7
2019-05-17T15:23:57.373Z,32.7
2019-05-17T15:29:07.474Z,32.6
2019-05-17T15:34:17.545Z,32.5
2019-05-17T15:39:27.614Z,32.6
2019-05-17T15:44:37.301Z,32.2
2019-05-17T16:57:46.882Z,41.4
2019-05-17T17:07:12.426Z,42.6
2019-05-17T17:12:21.304Z,43
2019-05-17T17:17:30.458Z,43.9
2019-05-17T17:22:39.616Z,44
2019-05-17T17:27:49.061Z,44.3
2019-05-17T17:32:57.939Z,44.4
2019-05-17T17:38:07.379Z,44.6
2019-05-17T17:43:16.263Z,44.6
2019-05-17T17:48:25.716Z,44.6
2019-05-17T17:53:34.882Z,44.5
2019-05-17T17:58:44.030Z,44.6
2019-05-17T18:03:53.218Z,41.8
2019-05-17T18:09:05.365Z,42.3
2019-05-17T18:14:14.892Z,42.5
2019-05-17T18:19:24.044Z,42.8
2019-05-17T18:24:32.912Z,43.2
2019-05-17T18:29:42.080Z,43.3
2019-05-17T18:34:51.239Z,43.9
2019-05-17T18:40:00.398Z,44
2019-05-17T18:45:09.554Z,44.1
2019-05-17T18:50:18.440Z,44.2
2019-05-17T18:55:27.601Z,44.3
2019-05-17T19:00:37.049Z,44.5
2019-05-17T19:05:46.765Z,44.2
2019-05-17T19:10:57.032Z,44.2
2019-05-17T19:16:06.189Z,44.2
2019-05-17T19:21:15.626Z,44.3
2019-05-17T19:26:24.787Z,44.8
2019-05-17T19:31:34.494Z,44.6
2019-05-17T19:36:43.945Z,44.8
2019-05-17T19:41:53.103Z,44.8
2019-05-17T19:47:02.259Z,44.8
2019-05-17T19:52:11.150Z,44.8
2019-05-17T19:57:20.787Z,44.7
2019-05-17T20:02:30.223Z,45
2019-05-17T20:07:40.148Z,44.7
2019-05-17T20:12:49.599Z,44.8
2019-05-17T20:17:58.769Z,44.9
2019-05-17T20:23:07.933Z,45
2019-05-17T20:28:17.089Z,45.2
2019-05-17T20:33:26.538Z,45.3
2019-05-17T20:38:35.704Z,45.2
2019-05-17T20:43:45.887Z,45.3
2019-05-17T20:48:55.831Z,45.2
2019-05-17T20:54:04.722Z,45.4
2019-05-17T20:59:14.160Z,45.4
2019-05-17T21:04:23.609Z,45.2
2019-05-17T21:09:32.766Z,45.1
2019-05-17T21:14:41.947Z,45.5
2019-05-17T21:19:51.674Z,45.3
2019-05-17T21:25:01.130Z,45.4
2019-05-17T21:30:10.276Z,45.3
2019-05-17T21:35:19.449Z,45.2
2019-05-17T21:40:28.608Z,45.5
2019-05-17T21:45:38.057Z,45.5
2019-05-17T21:50:46.946Z,45.1
2019-05-17T21:55:56.103Z,45.4
2019-05-17T22:01:05.553Z,45.4
2019-05-17T22:06:14.717Z,45.6
2019-05-17T22:11:24.166Z,45.8
2019-05-17T22:16:33.054Z,45.9
2019-05-17T22:21:42.209Z,45.9
2019-05-17T22:26:51.929Z,45.9
2019-05-17T22:32:01.099Z,45.9
2019-05-17T22:37:09.998Z,45.9
2019-05-17T22:42:18.883Z,45.6
2019-05-17T22:47:28.305Z,45.7
2019-05-17T22:52:37.746Z,46
2019-05-17T22:57:46.660Z,46
2019-05-17T23:02:55.536Z,45.8
2019-05-17T23:08:04.699Z,46
2019-05-17T23:13:13.930Z,46
2019-05-17T23:18:23.454Z,46.3
2019-05-17T23:23:32.338Z,46.2
2019-05-17T23:28:41.494Z,46.2
2019-05-17T23:33:50.657Z,46.3
2019-05-17T23:38:59.824Z,46.4
2019-05-17T23:44:08.703Z,46.5
2019-05-17T23:49:17.586Z,46.4
2019-05-17T23:54:27.030Z,46.3
2019-05-17T23:59:36.202Z,46.3
